Sun Valley, CA

10:30 PM PDT die 30o October, anno 2014 (GMT -0700)
Burbank-Glendale-Pasadena | Change Station
CLOSE
Current Station
Airport
Location: Burbank,
Elevation: 774 ft
Nearby Weather Stations
Active Advisory: Special Statement

Elev 774 ft 34.20 °N, 118.36 °W | Updated 37 minutes ago

Serena
Serena
65 °F
Feels Like 65 °F
N
4
Ventus Variabilis Ventus from Variabilis

Hodie
High -- | Low -- °F
--% Chance of Precip.
Yesterday
High -- | Low -- °F
Precip. -- in
7:11 AM 6:02 PM
Waxing Crescent, 51% visible
Pressio 29.93 in
Visibilitas 10.0 milia passuum
Clouds Serena
Frigus in quo Ros apparet 56 °F
Umor 73%
Rainfall 0.00 in
Snow Depth Not available.
UV 0 out of 12
Pollen 4.40 out of 12
Air Quality Not available.
Flu Activity Not available.
METAR KBUR 310453Z VRB03KT 10SM CLR 18/13 A2996 RMK AO2 SLP135 T01830133

More Conditions Fewer Conditions

Pressio 29.93 in
Visibilitas 10.0 milia passuum
Clouds Serena
Frigus in quo Ros apparet 56 °F
Umor 73%
Rainfall 0.00 in
Snow Depth Not available.
UV 0 out of 12
Pollen 4.40 out of 12
Air Quality Not available.
Flu Activity Not available.
METAR KBUR 310453Z VRB03KT 10SM CLR 18/13 A2996 RMK AO2 SLP135 T01830133

More Conditions Fewer Conditions

10-Day Weather Forecast

Almanac

Astronomy

Oct. 30, 2014 Rise Set
Actual Time
Civil Twilight
Nautical Twilight
Astronomical Twilight
Moon
Length Of Visible Light
Length of Day
Tomorrow will be .
, % of the Moon is Illuminated

Today's Extremes

State Highs State Lows

Community

WunderPhotos

Upload Photos

1,766,569 photos uploaded!

WunderBlogs® & News

Nearby

Air Quality

  Air Quality AQ Index Pollutant
Not available.

Snow Depth

Station Depth Elevation

Earthquake Activity

City Distance Mag. Time & Date
Minimum magnitude displayed is 2.5.

Coastal Water Temperatures

Locus Calor

Nearby Weather Stations